createdAt,value
2023-11-01T00:04:36.582Z,5.70
2023-11-01T00:09:33.960Z,7.43
2023-11-01T00:14:31.018Z,6.20
2023-11-01T00:19:27.895Z,6.88
2023-11-01T00:24:25.428Z,7.32
2023-11-01T00:29:22.903Z,7.40
2023-11-01T00:34:19.768Z,7.45
2023-11-01T00:39:16.627Z,7.30
2023-11-01T00:44:14.215Z,6.30
2023-11-01T00:49:11.884Z,7.43
2023-11-01T00:54:08.744Z,7.80
2023-11-01T00:59:05.845Z,7.20
2023-11-01T01:04:04.337Z,7.40
2023-11-01T01:09:01.874Z,7.82
2023-11-01T01:13:59.060Z,6.43
2023-11-01T01:18:55.961Z,8.13
2023-11-01T01:23:53.565Z,8.70
2023-11-01T01:28:51.081Z,8.13
2023-11-01T01:33:47.899Z,8.05
2023-11-01T01:38:44.726Z,7.60
2023-11-01T01:43:42.311Z,7.70
2023-11-01T01:48:41.688Z,7.68
2023-11-01T01:53:41.230Z,8.20
2023-11-01T01:58:41.579Z,6.88
2023-11-01T02:03:39.252Z,6.15
2023-11-01T02:08:37.318Z,6.70
2023-11-01T02:13:34.244Z,7.07
2023-11-01T02:18:31.153Z,7.53
2023-11-01T02:23:33.251Z,8.80
2023-11-01T02:28:30.936Z,9.63
2023-11-01T02:33:28.035Z,9.13
2023-11-01T02:38:24.988Z,11.60
2023-11-01T02:43:22.633Z,10.25
2023-11-01T02:48:19.951Z,9.13
2023-11-01T02:53:16.781Z,9.25
2023-11-01T02:58:13.915Z,10.48
2023-11-01T03:03:12.164Z,11.23
2023-11-01T03:08:09.843Z,10.57
2023-11-01T03:13:06.779Z,12.50
2023-11-01T03:18:05.351Z,11.60
2023-11-01T03:23:02.917Z,11.32
2023-11-01T03:27:59.879Z,10.73
2023-11-01T03:32:56.807Z,9.98
2023-11-01T03:37:53.681Z,8.75
2023-11-01T03:42:51.298Z,8.70
2023-11-01T03:47:49.586Z,8.38
2023-11-01T03:52:46.492Z,9.25
2023-11-01T03:57:43.361Z,7.70
2023-11-01T04:02:40.928Z,7.70
2023-11-01T04:07:37.891Z,7.82
2023-11-01T04:12:34.849Z,7.00
2023-11-01T04:17:31.941Z,7.32
2023-11-01T04:22:29.499Z,7.22
2023-11-01T04:27:26.819Z,7.10
2023-11-01T04:32:29.003Z,7.97
2023-11-01T04:37:26.941Z,6.53
2023-11-01T04:42:27.798Z,6.30
2023-11-01T04:47:24.731Z,6.70
2023-11-01T04:52:22.858Z,6.70
2023-11-01T04:57:19.732Z,7.38
2023-11-01T05:02:17.232Z,6.93
2023-11-01T05:07:14.182Z,7.68
2023-11-01T05:12:11.352Z,6.25
2023-11-01T05:17:08.262Z,6.03
2023-11-01T05:22:06.546Z,5.63
2023-11-01T05:27:03.560Z,5.93
2023-11-01T05:32:00.555Z,5.85
2023-11-01T05:36:57.594Z,6.00
2023-11-01T05:41:55.197Z,5.47
2023-11-01T05:46:53.106Z,5.10
2023-11-01T05:51:50.904Z,4.53
2023-11-01T05:56:47.812Z,4.90
2023-11-01T06:01:47.923Z,4.60
2023-11-01T06:06:45.718Z,4.65
2023-11-01T06:11:43.834Z,5.28
2023-11-01T06:16:40.837Z,3.42
2023-11-01T06:21:39.772Z,4.47
2023-11-01T06:26:36.614Z,4.18
2023-11-01T06:31:33.593Z,4.35
2023-11-01T06:36:30.490Z,3.97
2023-11-01T06:41:28.490Z,4.00
2023-11-01T06:46:25.575Z,4.20
2023-11-01T06:51:24.536Z,3.88
2023-11-01T06:56:23.223Z,3.72
2023-11-01T07:01:20.973Z,3.47
2023-11-01T07:06:17.940Z,3.60
2023-11-01T07:11:14.842Z,3.67
2023-11-01T07:16:11.958Z,3.60
2023-11-01T07:21:10.906Z,3.42
2023-11-01T07:26:08.451Z,3.55
2023-11-01T07:31:05.867Z,3.55
2023-11-01T07:36:03.268Z,3.50
2023-11-01T07:41:01.228Z,3.15
2023-11-01T07:45:58.285Z,3.55
2023-11-01T07:50:55.462Z,2.45
2023-11-01T07:55:54.487Z,2.60
2023-11-01T08:00:52.316Z,3.40
2023-11-01T08:05:49.236Z,2.90
2023-11-01T08:10:46.122Z,2.75
2023-11-01T08:15:43.145Z,2.50
2023-11-01T08:20:40.924Z,2.30
2023-11-01T08:25:38.637Z,2.05
2023-11-01T08:30:35.542Z,2.40
2023-11-01T08:35:32.471Z,2.20
2023-11-01T08:40:29.956Z,1.98
2023-11-01T08:45:26.744Z,3.35
2023-11-01T08:50:23.573Z,1.65
2023-11-01T08:55:20.485Z,1.75
2023-11-01T09:00:18.740Z,1.80
2023-11-01T09:05:16.465Z,1.80
2023-11-01T09:10:13.582Z,1.75
2023-11-01T09:15:10.601Z,1.77
2023-11-01T09:20:09.126Z,1.90
2023-11-01T09:25:07.086Z,1.80
2023-11-01T09:30:05.232Z,1.52
2023-11-01T09:35:02.165Z,2.10
2023-11-01T09:39:59.974Z,2.10
2023-11-01T09:44:58.056Z,1.45
2023-11-01T09:49:55.507Z,1.55
2023-11-01T09:54:52.380Z,1.40
2023-11-01T09:59:50.708Z,1.73
2023-11-01T10:04:47.642Z,1.58
2023-11-01T10:09:44.471Z,2.00
2023-11-01T10:14:44.772Z,1.90
2023-11-01T10:19:43.521Z,2.17
2023-11-01T10:24:42.096Z,2.15
2023-11-01T10:29:43.668Z,2.30
2023-11-01T10:34:40.546Z,2.00
2023-11-01T10:39:40.577Z,1.95
2023-11-01T10:44:39.100Z,2.40
2023-11-01T10:49:37.758Z,2.20
2023-11-01T10:54:36.305Z,2.47
2023-11-01T10:59:44.323Z,2.33
2023-11-01T11:04:48.005Z,4.28
2023-11-01T11:09:45.384Z,2.63
2023-11-01T11:14:44.236Z,2.97
2023-11-01T11:20:13.434Z,1.60
2023-11-01T11:25:50.433Z,1.80
2023-11-01T11:31:09.594Z,2.50
2023-11-01T11:36:15.174Z,1.38
2023-11-01T11:41:13.842Z,1.50
2023-11-01T11:46:31.802Z,1.90
2023-11-01T11:51:30.535Z,1.25
2023-11-01T11:56:27.978Z,1.00
2023-11-01T12:01:26.556Z,1.25
2023-11-01T12:06:24.965Z,1.65
2023-11-01T12:11:28.819Z,1.15
2023-11-01T12:16:27.170Z,1.00
2023-11-01T12:21:24.803Z,2.47
2023-11-01T12:26:21.781Z,1.42
2023-11-01T12:31:24.618Z,1.35
2023-11-01T12:36:29.774Z,1.58
2023-11-01T12:41:26.831Z,1.20
2023-11-01T12:46:23.768Z,1.70
2023-11-01T12:51:20.707Z,1.02
2023-11-01T12:56:19.605Z,1.30
2023-11-01T13:01:18.282Z,1.40
2023-11-01T13:06:16.225Z,1.33
2023-11-01T13:11:13.701Z,0.98
2023-11-01T13:16:11.375Z,1.27
2023-11-01T13:21:11.167Z,0.98
2023-11-01T13:26:09.610Z,1.05
2023-11-01T13:31:06.695Z,1.55
2023-11-01T13:36:05.214Z,0.70
2023-11-01T13:41:02.323Z,1.00
2023-11-01T13:46:00.889Z,1.00
2023-11-01T13:50:57.957Z,0.75
2023-11-01T13:55:55.619Z,0.68
2023-11-01T14:00:52.609Z,1.25
2023-11-01T14:05:49.518Z,0.60
2023-11-01T14:10:48.164Z,0.65
2023-11-01T14:15:46.285Z,1.02
2023-11-01T14:20:43.186Z,0.65
2023-11-01T14:25:40.279Z,1.00
2023-11-01T14:30:37.124Z,1.00
2023-11-01T14:35:34.725Z,0.90
2023-11-01T14:40:31.797Z,1.40
2023-11-01T14:45:29.404Z,0.95
2023-11-01T14:50:29.559Z,1.30
2023-11-01T14:55:27.410Z,1.17
2023-11-01T15:00:25.078Z,1.25
2023-11-01T15:05:24.373Z,0.75
2023-11-01T15:10:22.687Z,0.80
2023-11-01T15:15:21.002Z,0.90
2023-11-01T15:20:18.296Z,1.58
2023-11-01T15:25:15.444Z,1.15
2023-11-01T15:30:15.118Z,1.25
2023-11-01T15:35:13.137Z,2.47
2023-11-01T15:40:10.747Z,2.33
2023-11-01T15:45:10.014Z,2.55
2023-11-01T15:50:08.034Z,2.20
2023-11-01T15:55:07.731Z,2.08
2023-11-01T16:00:07.147Z,3.95
2023-11-01T16:05:04.537Z,2.33
2023-11-01T16:10:01.548Z,1.50
2023-11-01T16:14:59.375Z,1.45
2023-11-01T16:20:00.697Z,2.22
2023-11-01T16:25:06.788Z,1.48
2023-11-01T16:30:09.403Z,2.58
2023-11-01T16:35:07.514Z,2.42
2023-11-01T16:40:06.041Z,2.83
2023-11-01T16:45:03.378Z,2.38
2023-11-01T16:50:01.265Z,2.83
2023-11-01T16:54:58.623Z,2.00
2023-11-01T16:59:55.636Z,2.88
2023-11-01T17:04:52.673Z,1.70
2023-11-01T17:09:50.490Z,2.13
2023-11-01T17:14:50.158Z,3.03
2023-11-01T17:19:47.913Z,2.55
2023-11-01T17:25:01.368Z,2.63
2023-11-01T17:29:59.848Z,2.70
2023-11-01T17:34:56.813Z,2.35
2023-11-01T17:39:56.792Z,2.85
2023-11-01T17:44:54.207Z,3.05
2023-11-01T17:49:53.829Z,3.47
2023-11-01T17:54:51.753Z,2.08
2023-11-01T17:59:50.860Z,2.72
2023-11-01T18:04:48.095Z,2.13
2023-11-01T18:09:45.151Z,3.13
2023-11-01T18:14:43.113Z,2.63
2023-11-01T18:19:41.586Z,3.63
2023-11-01T18:24:40.278Z,2.70
2023-11-01T18:29:37.807Z,2.70
2023-11-01T18:34:40.622Z,3.13
2023-11-01T18:39:38.560Z,2.97
2023-11-01T18:44:37.213Z,2.60
2023-11-01T18:49:59.549Z,1.90
2023-11-01T18:54:57.326Z,1.98
2023-11-01T18:59:54.386Z,2.50
2023-11-01T19:04:51.702Z,2.25
2023-11-01T19:09:48.652Z,2.60
2023-11-01T19:14:46.499Z,2.50
2023-11-01T19:19:47.733Z,1.92
2023-11-01T19:24:46.705Z,1.63
2023-11-01T19:29:44.604Z,2.15
2023-11-01T19:34:42.363Z,1.83
2023-11-01T19:39:40.201Z,2.05
2023-11-01T19:44:37.949Z,1.95
2023-11-01T19:49:35.400Z,2.47
2023-11-01T19:54:34.814Z,2.88
2023-11-01T19:59:33.664Z,2.20
2023-11-01T20:04:30.632Z,1.95
2023-11-01T20:09:33.845Z,2.50
2023-11-01T20:14:31.783Z,2.10
2023-11-01T20:19:29.766Z,2.45
2023-11-01T20:24:26.695Z,2.20
2023-11-01T20:29:24.764Z,2.22
2023-11-01T20:34:22.497Z,3.00
2023-11-01T20:39:21.058Z,2.30
2023-11-01T20:44:20.676Z,2.80
2023-11-01T20:49:19.828Z,2.63
2023-11-01T20:54:20.541Z,3.22
2023-11-01T20:59:17.699Z,2.90
2023-11-01T21:04:14.727Z,2.90
2023-11-01T21:09:14.553Z,2.88
2023-11-01T21:14:12.260Z,3.05
2023-11-01T21:19:09.778Z,3.33
2023-11-01T21:29:07.066Z,2.90
2023-11-01T21:34:06.793Z,2.72
2023-11-01T21:39:05.695Z,3.08
2023-11-01T21:44:05.173Z,2.72
2023-11-01T21:49:03.197Z,2.50
2023-11-01T21:54:05.463Z,2.38
2023-11-01T21:59:09.913Z,2.00
2023-11-01T22:04:21.375Z,2.78
2023-11-01T22:09:21.527Z,2.90
2023-11-01T22:14:38.384Z,2.42
2023-11-01T22:19:37.293Z,1.98
2023-11-01T22:24:37.567Z,2.70
2023-11-01T22:29:45.674Z,2.10
2023-11-01T22:34:44.230Z,2.25
2023-11-01T22:39:42.912Z,3.13
2023-11-01T22:44:43.977Z,2.65
2023-11-01T22:49:40.883Z,2.58
2023-11-01T22:54:38.822Z,2.03
2023-11-01T22:59:37.673Z,2.40
2023-11-01T23:04:35.231Z,1.90
2023-11-01T23:09:32.535Z,1.88
2023-11-01T23:14:29.554Z,1.60
2023-11-01T23:19:27.280Z,1.80
2023-11-01T23:24:24.536Z,1.60
2023-11-01T23:29:24.925Z,1.95
2023-11-01T23:34:44.233Z,1.60
2023-11-01T23:39:41.075Z,1.30
2023-11-01T23:44:38.031Z,1.40
2023-11-01T23:49:53.795Z,1.42
2023-11-01T23:54:54.592Z,1.77
